Time,TemperatureF,DewpointF,PressureIn,WindDirection,WindDirectionDegrees,WindSpeedMPH,WindSpeedGustMPH,Humidity,HourlyPrecipIn,Conditions,Clouds,dailyrainin,SolarRadiationWatts/m^2,SoftwareType,DateUTC
2013-01-25 00:01:00,25.0,9.0,-100.00,WSW,256,4.0,8.0,51,-99.99,,,-99.99,0.000000,,2013-01-25 07:01:00,
2013-01-25 00:11:00,25.0,9.0,-100.00,WSW,256,4.0,8.0,51,-99.99,,,-99.99,0.000000,,2013-01-25 07:11:00,
2013-01-25 00:32:00,25.0,9.0,-100.00,West,278,4.0,10.0,51,-99.99,,,-99.99,0.000000,,2013-01-25 07:32:00,
2013-01-25 00:42:00,25.0,9.0,-100.00,West,278,4.0,10.0,51,-99.99,,,-99.99,0.000000,,2013-01-25 07:42:00,
2013-01-25 00:52:00,25.0,9.0,-100.00,West,278,4.0,10.0,51,-99.99,,,-99.99,0.000000,,2013-01-25 07:52:00,
2013-01-25 01:01:00,25.0,9.0,-100.00,West,278,4.0,10.0,51,-99.99,,,-99.99,0.000000,,2013-01-25 08:01:00,
2013-01-25 01:11:00,25.0,9.0,-100.00,West,278,4.0,10.0,51,-99.99,,,-99.99,0.000000,,2013-01-25 08:11:00,
2013-01-25 01:42:00,24.0,10.0,-100.00,West,263,0.0,7.0,55,-99.99,,,-99.99,0.000000,,2013-01-25 08:42:00,
2013-01-25 01:52:00,24.0,10.0,-100.00,West,263,0.0,7.0,55,-99.99,,,-99.99,0.000000,,2013-01-25 08:52:00,
2013-01-25 02:01:00,24.0,10.0,-100.00,West,263,0.0,7.0,55,-99.99,,,-99.99,0.000000,,2013-01-25 09:01:00,
2013-01-25 02:11:00,24.0,10.0,-100.00,West,263,0.0,7.0,55,-99.99,,,-99.99,0.000000,,2013-01-25 09:11:00,
2013-01-25 02:42:00,24.0,8.0,-100.00,West,259,0.0,0.0,50,-99.99,,,-99.99,0.000000,,2013-01-25 09:42:00,
2013-01-25 02:52:00,24.0,8.0,-100.00,West,259,0.0,0.0,50,-99.99,,,-99.99,0.000000,,2013-01-25 09:52:00,
2013-01-25 03:01:00,24.0,8.0,-100.00,West,259,0.0,0.0,50,-99.99,,,-99.99,0.000000,,2013-01-25 10:01:00,
2013-01-25 03:11:00,24.0,8.0,-100.00,West,259,0.0,0.0,50,-99.99,,,-99.99,0.000000,,2013-01-25 10:11:00,
2013-01-25 03:42:00,25.0,9.0,-100.00,WSW,255,0.0,0.0,50,-99.99,,,-99.99,0.000000,,2013-01-25 10:42:00,
2013-01-25 03:52:00,25.0,9.0,-100.00,WSW,255,0.0,0.0,50,-99.99,,,-99.99,0.000000,,2013-01-25 10:52:00,
2013-01-25 04:02:00,25.0,9.0,-100.00,WSW,255,0.0,0.0,50,-99.99,,,-99.99,0.000000,,2013-01-25 11:02:00,
2013-01-25 04:11:00,25.0,9.0,-100.00,WSW,255,0.0,0.0,50,-99.99,,,-99.99,0.000000,,2013-01-25 11:11:00,
2013-01-25 04:42:00,24.0,9.0,-100.00,North,11,0.0,0.0,53,-99.99,,,-99.99,0.000000,,2013-01-25 11:42:00,
2013-01-25 04:52:00,24.0,9.0,-100.00,North,11,0.0,0.0,53,-99.99,,,-99.99,0.000000,,2013-01-25 11:52:00,
2013-01-25 05:02:00,24.0,9.0,-100.00,North,11,0.0,0.0,53,-99.99,,,-99.99,0.000000,,2013-01-25 12:02:00,
2013-01-25 05:11:00,24.0,9.0,-100.00,North,11,0.0,0.0,53,-99.99,,,-99.99,0.000000,,2013-01-25 12:11:00,
2013-01-25 05:33:00,27.0,10.0,-100.00,WNW,284,3.0,5.0,49,-99.99,,,-99.99,0.000000,,2013-01-25 12:33:00,
2013-01-25 05:42:00,27.0,10.0,-100.00,WNW,284,3.0,5.0,49,-99.99,,,-99.99,0.000000,,2013-01-25 12:42:00,
2013-01-25 05:53:00,27.0,10.0,-100.00,WNW,284,3.0,5.0,49,-99.99,,,-99.99,0.000000,,2013-01-25 12:53:00,
2013-01-25 06:02:00,27.0,10.0,-100.00,WNW,284,3.0,5.0,49,-99.99,,,-99.99,0.000000,,2013-01-25 13:02:00,
2013-01-25 06:11:00,27.0,10.0,-100.00,WNW,284,3.0,5.0,49,-99.99,,,-99.99,0.000000,,2013-01-25 13:11:00,
2013-01-25 06:43:00,27.0,11.0,-100.00,North,358,2.0,6.0,50,-99.99,,,-99.99,0.000000,,2013-01-25 13:43:00,
2013-01-25 06:52:00,27.0,11.0,-100.00,North,358,2.0,6.0,50,-99.99,,,-99.99,0.000000,,2013-01-25 13:52:00,
2013-01-25 07:02:00,27.0,11.0,-100.00,North,358,2.0,6.0,50,-99.99,,,-99.99,0.000000,,2013-01-25 14:02:00,
2013-01-25 07:12:00,27.0,11.0,-100.00,North,358,2.0,6.0,50,-99.99,,,-99.99,0.000000,,2013-01-25 14:12:00,
2013-01-25 07:42:00,30.0,15.0,-100.00,ENE,69,2.0,10.0,52,-99.99,,,-99.99,0.000000,,2013-01-25 14:42:00,
2013-01-25 07:53:00,30.0,15.0,-100.00,ENE,69,2.0,10.0,52,-99.99,,,-99.99,0.000000,,2013-01-25 14:53:00,
2013-01-25 08:02:00,30.0,15.0,-100.00,ENE,69,2.0,10.0,52,-99.99,,,-99.99,0.000000,,2013-01-25 15:02:00,
2013-01-25 08:11:00,30.0,15.0,-100.00,ENE,69,2.0,10.0,52,-99.99,,,-99.99,0.000000,,2013-01-25 15:11:00,
2013-01-25 08:43:00,28.0,14.0,-100.00,NNE,26,2.0,5.0,56,-99.99,,,-99.99,4.000000,,2013-01-25 15:43:00,
2013-01-25 08:53:00,28.0,14.0,-100.00,NNE,26,2.0,5.0,56,-99.99,,,-99.99,4.000000,,2013-01-25 15:53:00,
2013-01-25 09:02:00,28.0,14.0,-100.00,NNE,26,2.0,5.0,56,-99.99,,,-99.99,4.000000,,2013-01-25 16:02:00,
2013-01-25 09:11:00,28.0,14.0,-100.00,NNE,26,2.0,5.0,56,-99.99,,,-99.99,4.000000,,2013-01-25 16:11:00,
2013-01-25 09:43:00,30.0,16.0,-100.00,SW,232,1.0,6.0,55,-99.99,,,-99.99,27.000000,,2013-01-25 16:43:00,
2013-01-25 09:53:00,30.0,16.0,-100.00,SW,232,1.0,6.0,55,-99.99,,,-99.99,27.000000,,2013-01-25 16:53:00,
2013-01-25 10:02:00,30.0,16.0,-100.00,SW,232,1.0,6.0,55,-99.99,,,-99.99,27.000000,,2013-01-25 17:02:00,
2013-01-25 10:11:00,30.0,16.0,-100.00,SW,232,1.0,6.0,55,-99.99,,,-99.99,27.000000,,2013-01-25 17:11:00,
2013-01-25 10:43:00,31.0,16.0,-100.00,West,271,4.0,7.0,54,-99.99,,,-99.99,69.000000,,2013-01-25 17:43:00,
2013-01-25 10:53:00,31.0,16.0,-100.00,West,271,4.0,7.0,54,-99.99,,,-99.99,69.000000,,2013-01-25 17:53:00,
2013-01-25 11:02:00,31.0,16.0,-100.00,West,271,4.0,7.0,54,-99.99,,,-99.99,69.000000,,2013-01-25 18:02:00,
2013-01-25 11:11:00,31.0,16.0,-100.00,West,271,4.0,7.0,54,-99.99,,,-99.99,69.000000,,2013-01-25 18:11:00,
2013-01-25 11:43:00,37.0,17.0,-100.00,SW,231,2.0,6.0,43,-99.99,,,-99.99,160.000000,,2013-01-25 18:43:00,
2013-01-25 11:52:00,37.0,17.0,-100.00,SW,231,2.0,6.0,43,-99.99,,,-99.99,160.000000,,2013-01-25 18:52:00,
2013-01-25 12:02:00,37.0,17.0,-100.00,SW,231,2.0,6.0,43,-99.99,,,-99.99,160.000000,,2013-01-25 19:02:00,
2013-01-25 12:12:00,37.0,17.0,-100.00,SW,231,2.0,6.0,43,-99.99,,,-99.99,160.000000,,2013-01-25 19:12:00,
2013-01-25 12:42:00,48.0,19.0,-100.00,East,94,6.0,10.0,31,-99.99,,,-99.99,449.000000,,2013-01-25 19:42:00,
2013-01-25 12:53:00,48.0,19.0,-100.00,East,94,6.0,10.0,31,-99.99,,,-99.99,449.000000,,2013-01-25 19:53:00,
2013-01-25 13:43:00,44.0,20.0,-100.00,East,100,7.0,14.0,38,-99.99,,,-99.99,502.000000,,2013-01-25 20:43:00,
2013-01-25 13:52:00,44.0,20.0,-100.00,East,100,7.0,14.0,38,-99.99,,,-99.99,502.000000,,2013-01-25 20:52:00,
2013-01-25 14:02:00,44.0,20.0,-100.00,East,100,7.0,14.0,38,-99.99,,,-99.99,502.000000,,2013-01-25 21:02:00,
2013-01-25 14:11:00,44.0,20.0,-100.00,East,100,7.0,14.0,38,-99.99,,,-99.99,502.000000,,2013-01-25 21:11:00,
2013-01-25 14:43:00,43.0,21.0,-100.00,ENE,76,3.0,11.0,41,-99.99,,,-99.99,152.000000,,2013-01-25 21:43:00,
2013-01-25 14:52:00,43.0,21.0,-100.00,ENE,76,3.0,11.0,41,-99.99,,,-99.99,152.000000,,2013-01-25 21:52:00,
2013-01-25 15:02:00,43.0,21.0,-100.00,ENE,76,3.0,11.0,41,-99.99,,,-99.99,152.000000,,2013-01-25 22:02:00,
2013-01-25 15:11:00,43.0,21.0,-100.00,ENE,76,3.0,11.0,41,-99.99,,,-99.99,152.000000,,2013-01-25 22:11:00,
2013-01-25 15:42:00,44.0,21.0,-100.00,East,84,4.0,8.0,40,-99.99,,,-99.99,161.000000,,2013-01-25 22:42:00,
2013-01-25 15:52:00,44.0,21.0,-100.00,East,84,4.0,8.0,40,-99.99,,,-99.99,161.000000,,2013-01-25 22:52:00,
2013-01-25 16:02:00,44.0,21.0,-100.00,East,84,4.0,8.0,40,-99.99,,,-99.99,161.000000,,2013-01-25 23:02:00,
2013-01-25 16:11:00,44.0,21.0,-100.00,East,84,4.0,8.0,40,-99.99,,,-99.99,161.000000,,2013-01-25 23:11:00,
2013-01-25 16:42:00,43.0,20.0,-100.00,WSW,250,6.0,11.0,40,-99.99,,,-99.99,202.000000,,2013-01-25 23:42:00,
2013-01-25 16:52:00,43.0,20.0,-100.00,WSW,250,6.0,11.0,40,-99.99,,,-99.99,202.000000,,2013-01-25 23:52:00,
2013-01-25 17:01:00,43.0,20.0,-100.00,WSW,250,6.0,11.0,40,-99.99,,,-99.99,202.000000,,2013-01-26 00:01:00,
2013-01-25 17:11:00,43.0,20.0,-100.00,WSW,250,6.0,11.0,40,-99.99,,,-99.99,202.000000,,2013-01-26 00:11:00,
2013-01-25 17:42:00,41.0,21.0,-100.00,ENE,61,3.0,11.0,44,-99.99,,,-99.99,84.000000,,2013-01-26 00:42:00,
2013-01-25 17:53:00,41.0,21.0,-100.00,ENE,61,3.0,11.0,44,-99.99,,,-99.99,84.000000,,2013-01-26 00:53:00,
2013-01-25 18:01:00,41.0,21.0,-100.00,ENE,61,3.0,11.0,44,-99.99,,,-99.99,84.000000,,2013-01-26 01:01:00,
2013-01-25 18:11:00,41.0,21.0,-100.00,ENE,61,3.0,11.0,44,-99.99,,,-99.99,84.000000,,2013-01-26 01:11:00,
2013-01-25 18:32:00,38.0,21.0,-100.00,NNE,27,3.0,6.0,49,-99.99,,,-99.99,5.000000,,2013-01-26 01:32:00,
2013-01-25 18:42:00,38.0,21.0,-100.00,NNE,27,3.0,6.0,49,-99.99,,,-99.99,5.000000,,2013-01-26 01:42:00,
2013-01-25 18:52:00,38.0,21.0,-100.00,NNE,27,3.0,6.0,49,-99.99,,,-99.99,5.000000,,2013-01-26 01:52:00,
2013-01-25 19:01:00,38.0,21.0,-100.00,NNE,27,3.0,6.0,49,-99.99,,,-99.99,5.000000,,2013-01-26 02:01:00,
2013-01-25 19:11:00,38.0,21.0,-100.00,NNE,27,3.0,6.0,49,-99.99,,,-99.99,5.000000,,2013-01-26 02:11:00,
2013-01-25 19:42:00,35.0,21.0,-100.00,NW,319,2.0,7.0,56,-99.99,,,-99.99,0.000000,,2013-01-26 02:42:00,
2013-01-25 19:52:00,35.0,21.0,-100.00,NW,319,2.0,7.0,56,-99.99,,,-99.99,0.000000,,2013-01-26 02:52:00,
2013-01-25 20:01:00,35.0,21.0,-100.00,NW,319,2.0,7.0,56,-99.99,,,-99.99,0.000000,,2013-01-26 03:01:00,
2013-01-25 20:11:00,35.0,21.0,-100.00,NW,319,2.0,7.0,56,-99.99,,,-99.99,0.000000,,2013-01-26 03:11:00,
2013-01-25 20:32:00,33.0,21.0,-100.00,West,265,4.0,7.0,62,-99.99,,,-99.99,0.000000,,2013-01-26 03:32:00,
2013-01-25 20:43:00,33.0,21.0,-100.00,West,265,4.0,7.0,62,-99.99,,,-99.99,0.000000,,2013-01-26 03:43:00,
2013-01-25 20:52:00,33.0,21.0,-100.00,West,265,4.0,7.0,62,-99.99,,,-99.99,0.000000,,2013-01-26 03:52:00,
2013-01-25 21:01:00,33.0,21.0,-100.00,West,265,4.0,7.0,62,-99.99,,,-99.99,0.000000,,2013-01-26 04:01:00,
2013-01-25 21:12:00,33.0,21.0,-100.00,West,265,4.0,7.0,62,-99.99,,,-99.99,0.000000,,2013-01-26 04:12:00,
2013-01-25 21:32:00,33.0,22.0,-100.00,WNW,300,2.0,6.0,63,-99.99,,,-99.99,0.000000,,2013-01-26 04:32:00,
2013-01-25 21:42:00,33.0,22.0,-100.00,WNW,300,2.0,6.0,63,-99.99,,,-99.99,0.000000,,2013-01-26 04:42:00,
2013-01-25 21:52:00,33.0,22.0,-100.00,WNW,300,2.0,6.0,63,-99.99,,,-99.99,0.000000,,2013-01-26 04:52:00,
2013-01-25 22:03:00,33.0,22.0,-100.00,WNW,300,2.0,6.0,63,-99.99,,,-99.99,0.000000,,2013-01-26 05:03:00,
2013-01-25 22:12:00,33.0,22.0,-100.00,WNW,300,2.0,6.0,63,-99.99,,,-99.99,0.000000,,2013-01-26 05:12:00,
2013-01-25 22:33:00,37.0,19.0,-100.00,ENE,67,4.0,12.0,48,-99.99,,,-99.99,0.000000,,2013-01-26 05:33:00,
2013-01-25 22:42:00,37.0,19.0,-100.00,ENE,67,4.0,12.0,48,-99.99,,,-99.99,0.000000,,2013-01-26 05:42:00,
2013-01-25 22:52:00,37.0,19.0,-100.00,ENE,67,4.0,12.0,48,-99.99,,,-99.99,0.000000,,2013-01-26 05:52:00,
2013-01-25 23:02:00,37.0,19.0,-100.00,ENE,67,4.0,12.0,48,-99.99,,,-99.99,0.000000,,2013-01-26 06:02:00,
2013-01-25 23:11:00,37.0,19.0,-100.00,ENE,67,4.0,12.0,48,-99.99,,,-99.99,0.000000,,2013-01-26 06:11:00,
2013-01-25 23:32:00,38.0,20.0,-100.00,SW,231,5.0,13.0,47,-99.99,,,-99.99,0.000000,,2013-01-26 06:32:00,
2013-01-25 23:42:00,38.0,20.0,-100.00,SW,231,5.0,13.0,47,-99.99,,,-99.99,0.000000,,2013-01-26 06:42:00,
2013-01-25 23:52:00,38.0,20.0,-100.00,SW,231,5.0,13.0,47,-99.99,,,-99.99,0.000000,,2013-01-26 06:52:00,